createdAt,value
2019-01-28T00:01:11.783Z,5.18
2019-01-28T00:03:40.731Z,5.23
2019-01-28T00:06:09.893Z,5.21
2019-01-28T00:08:38.877Z,5.25
2019-01-28T00:11:08.052Z,5.16
2019-01-28T00:13:36.922Z,5.16
2019-01-28T00:16:05.916Z,5.18
2019-01-28T00:18:34.891Z,5.18
2019-01-28T00:21:03.769Z,5.19
2019-01-28T00:23:32.830Z,5.17
2019-01-28T00:26:01.692Z,5.27
2019-01-28T00:28:30.722Z,5.27
2019-01-28T00:30:59.779Z,5.15
2019-01-28T00:33:28.724Z,5.18
2019-01-28T00:35:57.961Z,5.15
2019-01-28T00:38:27.609Z,5.12
2019-01-28T00:40:56.522Z,5.10
2019-01-28T00:43:25.400Z,5.03
2019-01-28T00:45:54.399Z,5.01
2019-01-28T00:48:23.349Z,5.00
2019-01-28T00:50:52.322Z,4.96
2019-01-28T00:53:21.242Z,4.99
2019-01-28T00:55:50.146Z,4.96
2019-01-28T00:58:19.145Z,4.96
2019-01-28T01:00:48.133Z,4.93
2019-01-28T01:03:16.997Z,4.95
2019-01-28T01:05:46.044Z,4.94
2019-01-28T01:08:14.991Z,4.97
2019-01-28T01:10:43.905Z,4.91
2019-01-28T01:13:12.864Z,4.80
2019-01-28T01:15:41.701Z,4.82
2019-01-28T01:18:10.598Z,4.81
2019-01-28T01:20:39.470Z,4.85
2019-01-28T01:23:08.414Z,4.84
2019-01-28T01:25:37.297Z,4.87
2019-01-28T01:28:06.182Z,4.89
2019-01-28T01:30:35.082Z,4.86
2019-01-28T01:33:04.031Z,4.89
2019-01-28T01:35:32.911Z,4.93
2019-01-28T01:38:01.858Z,4.88
2019-01-28T01:40:30.768Z,4.90
2019-01-28T01:42:59.725Z,4.91
2019-01-28T01:45:28.663Z,4.96
2019-01-28T01:47:57.508Z,4.85
2019-01-28T01:50:26.407Z,4.89
2019-01-28T01:52:55.272Z,4.82
2019-01-28T01:55:24.240Z,4.83
2019-01-28T01:57:53.053Z,4.80
2019-01-28T02:00:22.088Z,4.80
2019-01-28T02:02:51.051Z,4.81
2019-01-28T02:05:19.927Z,4.79
2019-01-28T02:07:48.818Z,4.87
2019-01-28T02:10:18.060Z,4.80
2019-01-28T02:12:46.993Z,4.78
2019-01-28T02:15:17.886Z,4.75
2019-01-28T02:17:46.926Z,4.78
2019-01-28T02:20:16.232Z,4.81
2019-01-28T02:22:45.093Z,4.77
2019-01-28T02:25:14.678Z,4.79
2019-01-28T02:27:43.555Z,4.81
2019-01-28T02:30:14.624Z,4.79
2019-01-28T02:32:43.507Z,4.72
2019-01-28T02:35:12.916Z,4.71
2019-01-28T02:37:41.845Z,4.75
2019-01-28T02:40:13.356Z,4.58
2019-01-28T02:42:42.574Z,4.58
2019-01-28T02:45:12.464Z,4.71
2019-01-28T02:47:41.410Z,4.70
2019-01-28T02:50:13.113Z,4.70
2019-01-28T02:52:42.167Z,4.64
2019-01-28T02:55:11.176Z,4.67
2019-01-28T02:57:40.080Z,4.67
2019-01-28T03:00:22.940Z,4.70
2019-01-28T03:02:51.875Z,4.71
2019-01-28T03:05:20.943Z,4.68
2019-01-28T03:07:49.850Z,4.62
2019-01-28T03:10:20.874Z,4.64
2019-01-28T03:12:49.912Z,4.67
2019-01-28T03:15:19.312Z,4.70
2019-01-28T03:17:48.280Z,4.58
2019-01-28T03:20:17.436Z,4.61
2019-01-28T03:22:46.442Z,4.53
2019-01-28T03:25:15.953Z,4.55
2019-01-28T03:27:44.810Z,4.52
2019-01-28T03:30:16.281Z,4.46
2019-01-28T03:32:45.382Z,4.53
2019-01-28T03:35:14.632Z,4.54
2019-01-28T03:37:43.571Z,4.45
2019-01-28T03:40:15.100Z,4.45
2019-01-28T03:42:44.043Z,4.42
2019-01-28T03:45:15.094Z,4.43
2019-01-28T03:47:44.128Z,4.43
2019-01-28T03:50:14.371Z,4.36
2019-01-28T03:52:43.446Z,4.31
2019-01-28T03:55:12.382Z,4.28
2019-01-28T03:57:41.327Z,4.27
2019-01-28T04:00:13.572Z,4.27
2019-01-28T04:02:42.528Z,4.34
2019-01-28T04:05:11.707Z,4.22
2019-01-28T04:07:40.682Z,4.18
2019-01-28T04:10:11.963Z,4.19
2019-01-28T04:12:40.843Z,4.31
2019-01-28T04:15:13.303Z,4.35
2019-01-28T04:17:42.246Z,4.29
2019-01-28T04:20:12.554Z,4.33
2019-01-28T04:22:41.529Z,4.22
2019-01-28T04:25:11.164Z,4.29
2019-01-28T04:27:40.091Z,4.29
2019-01-28T04:30:12.781Z,4.29
2019-01-28T04:32:41.834Z,4.25
2019-01-28T04:35:10.849Z,4.25
2019-01-28T04:37:39.775Z,4.09
2019-01-28T04:40:09.215Z,4.16
2019-01-28T04:42:38.158Z,4.07
2019-01-28T04:45:09.564Z,4.16
2019-01-28T04:47:38.443Z,4.25
2019-01-28T04:50:09.542Z,4.18
2019-01-28T04:52:38.463Z,4.23
2019-01-28T04:55:07.999Z,4.19
2019-01-28T04:57:36.978Z,4.20
2019-01-28T05:00:09.454Z,4.15
2019-01-28T05:02:38.392Z,4.27
2019-01-28T05:05:07.973Z,4.31
2019-01-28T05:07:36.885Z,4.26
2019-01-28T05:10:06.482Z,4.14
2019-01-28T05:12:35.239Z,4.12
2019-01-28T05:15:04.974Z,4.14
2019-01-28T05:17:33.793Z,4.18
2019-01-28T05:20:02.755Z,4.17
2019-01-28T05:22:31.785Z,4.24
2019-01-28T05:25:00.673Z,4.18
2019-01-28T05:27:29.531Z,4.10
2019-01-28T05:29:58.403Z,4.08
2019-01-28T05:32:27.259Z,4.14
2019-01-28T05:34:56.190Z,4.07
2019-01-28T05:37:25.088Z,4.05
2019-01-28T05:39:54.035Z,3.96
2019-01-28T05:42:22.937Z,3.93
2019-01-28T05:44:51.831Z,4.05
2019-01-28T05:47:20.812Z,4.06
2019-01-28T05:49:49.687Z,4.16
2019-01-28T05:52:18.708Z,4.14
2019-01-28T05:54:47.589Z,4.03
2019-01-28T05:57:16.672Z,4.04
2019-01-28T05:59:45.620Z,3.94
2019-01-28T06:02:14.735Z,3.95
2019-01-28T06:04:43.611Z,3.86
2019-01-28T06:07:12.495Z,3.94
2019-01-28T06:09:41.363Z,3.79
2019-01-28T06:12:10.281Z,3.87
2019-01-28T06:14:39.151Z,3.94
2019-01-28T06:17:08.075Z,4.03
2019-01-28T06:19:36.977Z,4.03
2019-01-28T06:22:05.963Z,4.04
2019-01-28T06:24:34.888Z,4.10
2019-01-28T06:27:03.883Z,4.23
2019-01-28T06:29:32.879Z,4.25
2019-01-28T06:32:01.770Z,4.29
2019-01-28T06:34:30.740Z,4.19
2019-01-28T06:36:59.638Z,4.19
2019-01-28T06:39:28.591Z,4.08
2019-01-28T06:41:57.506Z,4.12
2019-01-28T06:44:26.385Z,4.10
2019-01-28T06:46:55.305Z,4.17
2019-01-28T06:49:24.203Z,4.16
2019-01-28T06:51:53.094Z,4.15
2019-01-28T06:54:22.062Z,4.08
2019-01-28T06:56:51.140Z,4.09
2019-01-28T06:59:20.108Z,4.07
2019-01-28T07:01:50.292Z,4.02
2019-01-28T07:04:19.294Z,4.02
2019-01-28T07:06:48.187Z,4.06
2019-01-28T07:09:44.125Z,4.08
2019-01-28T07:12:13.083Z,4.06
2019-01-28T07:14:42.055Z,4.04
2019-01-28T07:17:11.029Z,3.92
2019-01-28T07:19:39.832Z,3.81
2019-01-28T07:22:08.780Z,3.80
2019-01-28T07:24:37.682Z,3.79
2019-01-28T07:27:06.593Z,3.84
2019-01-28T07:29:35.609Z,3.93
2019-01-28T07:32:04.973Z,4.00
2019-01-28T07:34:33.946Z,3.95
2019-01-28T07:37:02.912Z,4.02
2019-01-28T07:39:31.909Z,3.96
2019-01-28T07:42:00.930Z,4.00
2019-01-28T07:44:29.949Z,3.91
2019-01-28T07:46:58.883Z,3.93
2019-01-28T07:49:27.796Z,3.99
2019-01-28T07:51:56.778Z,3.87
2019-01-28T07:54:25.793Z,3.80
2019-01-28T07:56:54.723Z,3.90
2019-01-28T07:59:23.628Z,3.93
2019-01-28T08:01:52.662Z,3.86
2019-01-28T08:04:21.549Z,3.93
2019-01-28T08:06:59.220Z,4.01
2019-01-28T08:09:21.338Z,3.96
2019-01-28T08:11:50.238Z,3.84
2019-01-28T08:14:19.252Z,3.83
2019-01-28T08:16:48.154Z,3.87
2019-01-28T08:19:17.194Z,3.83
2019-01-28T08:21:46.189Z,3.83
2019-01-28T08:24:15.242Z,3.88
2019-01-28T08:26:44.158Z,3.74
2019-01-28T08:29:13.104Z,3.75
2019-01-28T08:31:42.043Z,3.64
2019-01-28T08:34:11.024Z,3.64
2019-01-28T08:36:55.359Z,3.72
2019-01-28T08:39:24.347Z,3.68
2019-01-28T08:41:53.317Z,3.66
2019-01-28T08:44:22.219Z,3.75
2019-01-28T08:46:51.282Z,3.73
2019-01-28T08:49:20.389Z,3.72
2019-01-28T08:51:49.267Z,3.73
2019-01-28T08:54:18.189Z,3.73
2019-01-28T08:56:47.208Z,3.67
2019-01-28T08:59:16.128Z,3.57
2019-01-28T09:01:45.029Z,3.49
2019-01-28T09:04:13.924Z,3.55
2019-01-28T09:06:42.868Z,3.54
2019-01-28T09:09:12.120Z,3.67
2019-01-28T09:11:41.170Z,3.61
2019-01-28T09:14:10.199Z,3.59
2019-01-28T09:16:39.356Z,3.58
2019-01-28T09:19:08.342Z,3.62
2019-01-28T09:21:37.296Z,3.63
2019-01-28T09:24:06.534Z,3.50
2019-01-28T09:26:35.419Z,3.62
2019-01-28T09:29:04.434Z,3.58
2019-01-28T09:31:33.467Z,3.56
2019-01-28T09:34:02.529Z,3.75
2019-01-28T09:36:31.451Z,3.75
2019-01-28T09:39:24.631Z,3.72
2019-01-28T09:41:53.513Z,3.68
2019-01-28T09:44:22.601Z,3.67
2019-01-28T09:46:51.491Z,3.76
2019-01-28T09:49:20.426Z,3.77
2019-01-28T09:51:49.360Z,3.77
2019-01-28T09:54:18.409Z,3.77
2019-01-28T09:56:47.410Z,3.82
2019-01-28T09:59:16.414Z,3.81
2019-01-28T10:01:45.403Z,3.80
2019-01-28T10:04:14.404Z,3.78
2019-01-28T10:06:43.367Z,3.70
2019-01-28T10:09:12.386Z,3.71
2019-01-28T10:11:41.311Z,3.77
2019-01-28T10:14:10.288Z,3.83
2019-01-28T10:16:39.262Z,3.99
2019-01-28T10:19:08.216Z,4.07
2019-01-28T10:21:37.095Z,4.04
2019-01-28T10:24:06.420Z,3.98
2019-01-28T10:26:35.425Z,3.86
2019-01-28T10:29:04.373Z,3.96
2019-01-28T10:31:33.358Z,3.97
2019-01-28T10:34:02.301Z,4.00
2019-01-28T10:36:34.210Z,4.06
2019-01-28T10:39:02.317Z,4.08
2019-01-28T10:41:31.288Z,3.99
2019-01-28T10:44:00.296Z,4.03
2019-01-28T10:46:29.245Z,4.04
2019-01-28T10:48:58.307Z,4.05
2019-01-28T10:51:28.388Z,3.99
2019-01-28T10:53:57.421Z,4.01
2019-01-28T10:56:26.389Z,4.11
2019-01-28T10:58:55.553Z,4.11
2019-01-28T11:02:12.836Z,4.10
2019-01-28T11:04:41.749Z,4.17
2019-01-28T11:07:10.713Z,4.01
2019-01-28T11:09:39.820Z,4.02
2019-01-28T11:12:08.853Z,4.11
2019-01-28T11:14:38.107Z,4.14
2019-01-28T11:17:07.686Z,4.20
2019-01-28T11:19:36.673Z,4.11
2019-01-28T11:22:05.796Z,4.11
2019-01-28T11:24:34.865Z,4.06
2019-01-28T11:27:04.024Z,4.02
2019-01-28T11:33:02.113Z,4.12
2019-01-28T11:35:31.102Z,4.05
2019-01-28T11:38:00.010Z,4.17
2019-01-28T11:40:29.101Z,4.17
2019-01-28T11:42:58.408Z,4.25
2019-01-28T11:45:29.799Z,4.22
2019-01-28T11:47:58.903Z,4.19
2019-01-28T11:50:28.269Z,4.08
2019-01-28T11:52:57.179Z,4.09
2019-01-28T11:55:26.184Z,4.19
2019-01-28T11:57:55.170Z,4.20
2019-01-28T12:00:29.213Z,4.20
2019-01-28T12:02:58.194Z,4.17
2019-01-28T12:05:27.289Z,4.23
2019-01-28T12:07:56.260Z,4.15
2019-01-28T12:10:26.015Z,4.11
2019-01-28T12:12:55.019Z,4.12
2019-01-28T12:15:24.038Z,4.16
2019-01-28T12:17:53.011Z,4.20
2019-01-28T12:20:23.804Z,4.30
2019-01-28T12:22:52.602Z,4.37
2019-01-28T12:25:21.928Z,4.34
2019-01-28T12:27:51.005Z,4.35
2019-01-28T12:30:25.197Z,4.41
2019-01-28T12:32:54.378Z,4.39
2019-01-28T12:35:23.362Z,4.46
2019-01-28T12:37:52.341Z,4.47
2019-01-28T12:40:21.388Z,4.45
2019-01-28T12:42:52.516Z,4.47
2019-01-28T12:45:21.496Z,4.48
2019-01-28T12:47:50.653Z,4.49
2019-01-28T12:50:20.123Z,4.52
2019-01-28T12:52:49.305Z,4.63
2019-01-28T12:55:18.894Z,4.64
2019-01-28T12:57:48.017Z,4.62
2019-01-28T13:00:19.546Z,4.62
2019-01-28T13:02:48.645Z,4.61
2019-01-28T13:05:19.283Z,4.58
2019-01-28T13:07:48.186Z,4.58
2019-01-28T13:10:21.689Z,4.57
2019-01-28T13:12:50.684Z,4.62
2019-01-28T13:15:22.192Z,4.61
2019-01-28T13:17:51.859Z,4.58
2019-01-28T13:20:20.851Z,4.62
2019-01-28T13:22:49.750Z,4.61
2019-01-28T13:25:21.398Z,4.63
2019-01-28T13:27:50.303Z,4.62
2019-01-28T13:30:21.535Z,4.63
2019-01-28T13:32:50.861Z,4.67
2019-01-28T13:35:19.946Z,4.71
2019-01-28T13:37:48.851Z,4.69
2019-01-28T13:40:17.976Z,4.69
2019-01-28T13:42:47.069Z,4.67
2019-01-28T13:45:17.911Z,4.69
2019-01-28T13:47:47.560Z,4.78
2019-01-28T13:50:19.344Z,4.75
2019-01-28T13:52:49.335Z,4.73
2019-01-28T13:55:19.187Z,4.73
2019-01-28T13:57:48.354Z,4.67
2019-01-28T14:00:19.900Z,4.67
2019-01-28T14:02:49.398Z,4.67
2019-01-28T14:05:18.723Z,4.71
2019-01-28T14:11:16.503Z,4.82
2019-01-28T14:13:45.405Z,4.76
2019-01-28T14:16:14.381Z,4.74
2019-01-28T14:18:43.376Z,4.77
2019-01-28T14:21:12.380Z,4.69
2019-01-28T14:23:41.337Z,4.66
2019-01-28T14:26:10.313Z,4.64
2019-01-28T14:32:07.458Z,4.65
2019-01-28T14:34:36.416Z,4.72
2019-01-28T14:37:05.542Z,4.74
2019-01-28T14:39:34.428Z,4.73
2019-01-28T14:42:03.505Z,4.73
2019-01-28T14:44:32.384Z,4.71
2019-01-28T14:47:01.376Z,4.79
2019-01-28T14:49:32.387Z,4.74
2019-01-28T14:52:00.942Z,4.77
2019-01-28T14:54:29.916Z,4.76
2019-01-28T14:56:58.925Z,4.77
2019-01-28T14:59:27.933Z,4.78
2019-01-28T15:01:56.890Z,4.81
2019-01-28T15:04:25.858Z,4.78
2019-01-28T15:06:54.797Z,4.69
2019-01-28T15:09:23.790Z,4.70
2019-01-28T15:11:54.420Z,4.64
2019-01-28T15:14:23.453Z,4.69
2019-01-28T15:16:52.421Z,4.70
2019-01-28T15:19:21.441Z,4.73
2019-01-28T15:21:50.378Z,4.70
2019-01-28T15:24:20.388Z,4.70
2019-01-28T15:26:50.902Z,4.70
2019-01-28T15:29:20.463Z,4.73
2019-01-28T15:31:49.340Z,4.76
2019-01-28T15:34:18.329Z,4.72
2019-01-28T15:36:47.322Z,4.69
2019-01-28T15:39:16.353Z,4.68
2019-01-28T15:41:45.359Z,4.71
2019-01-28T15:44:14.391Z,4.70
2019-01-28T15:46:43.398Z,4.67
2019-01-28T15:49:12.338Z,4.72
2019-01-28T15:51:41.292Z,4.70
2019-01-28T15:54:10.306Z,4.68
2019-01-28T15:56:39.294Z,4.60
2019-01-28T15:59:08.309Z,4.69
2019-01-28T16:01:37.205Z,4.70
2019-01-28T16:04:06.218Z,4.66
2019-01-28T16:06:35.129Z,4.67
2019-01-28T16:09:06.053Z,4.57
2019-01-28T16:11:35.050Z,4.53
2019-01-28T16:14:04.069Z,4.49
2019-01-28T16:16:33.115Z,4.51
2019-01-28T16:19:02.301Z,4.49
2019-01-28T16:21:31.458Z,4.50
2019-01-28T16:24:00.651Z,4.47
2019-01-28T16:26:30.410Z,4.43
2019-01-28T16:28:59.820Z,4.42
2019-01-28T16:31:30.079Z,4.44
2019-01-28T16:33:59.066Z,4.41
2019-01-28T16:36:28.029Z,4.39
2019-01-28T16:38:56.925Z,4.27
2019-01-28T16:41:26.029Z,4.27
2019-01-28T16:43:55.064Z,4.31
2019-01-28T16:46:24.066Z,4.27
2019-01-28T16:48:53.157Z,4.29
2019-01-28T16:51:22.508Z,4.26
2019-01-28T16:53:51.516Z,4.22
2019-01-28T16:56:20.574Z,4.29
2019-01-28T16:58:49.506Z,4.30
2019-01-28T17:01:18.728Z,4.32
2019-01-28T17:03:47.799Z,4.32
2019-01-28T17:06:16.787Z,4.37
2019-01-28T17:08:45.765Z,4.41
2019-01-28T17:11:14.782Z,4.41
2019-01-28T17:13:43.602Z,4.33
2019-01-28T17:16:12.586Z,4.36
2019-01-28T17:18:41.504Z,4.25
2019-01-28T17:21:10.524Z,4.23
2019-01-28T17:23:39.483Z,4.14
2019-01-28T17:26:08.545Z,4.11
2019-01-28T17:28:37.534Z,4.01
2019-01-28T17:31:07.984Z,3.94
2019-01-28T17:33:39.144Z,3.76
2019-01-28T17:36:08.299Z,3.81
2019-01-28T17:38:37.450Z,3.68
2019-01-28T17:41:06.523Z,3.69
2019-01-28T17:43:35.818Z,3.68
2019-01-28T17:46:04.959Z,3.64
2019-01-28T17:48:34.258Z,3.64
2019-01-28T17:51:51.505Z,3.62
2019-01-28T17:54:20.551Z,3.51
2019-01-28T17:57:07.576Z,3.51
2019-01-28T17:59:36.957Z,3.37
2019-01-28T18:02:06.289Z,3.47
2019-01-28T18:04:35.249Z,3.36
2019-01-28T18:07:04.252Z,3.38
2019-01-28T18:09:33.667Z,3.33
2019-01-28T18:12:02.755Z,3.36
2019-01-28T18:14:31.836Z,3.37
2019-01-28T18:17:00.830Z,3.32
2019-01-28T18:19:29.910Z,3.33
2019-01-28T18:21:58.850Z,3.34
2019-01-28T18:24:27.898Z,3.31
2019-01-28T18:26:57.150Z,3.30
2019-01-28T18:29:26.611Z,3.37
2019-01-28T18:31:56.565Z,3.18
2019-01-28T18:34:26.206Z,3.19
2019-01-28T18:36:55.198Z,3.12
2019-01-28T18:39:24.482Z,3.13
2019-01-28T18:42:12.451Z,3.09
2019-01-28T18:45:00.412Z,3.02
2019-01-28T18:47:48.623Z,3.03
2019-01-28T18:50:59.748Z,3.03
2019-01-28T18:53:48.686Z,3.03
2019-01-28T18:56:36.662Z,2.96
2019-01-28T18:59:05.582Z,2.94
2019-01-28T19:01:53.555Z,2.88
2019-01-28T19:04:41.720Z,2.83
2019-01-28T19:07:50.328Z,2.89
2019-01-28T19:10:38.287Z,2.88
2019-01-28T19:13:26.249Z,2.76
2019-01-28T19:16:14.156Z,2.73
2019-01-28T19:18:50.149Z,2.67
2019-01-28T19:21:57.197Z,2.66
2019-01-28T19:24:45.362Z,2.73
2019-01-28T19:27:33.546Z,2.66
2019-01-28T19:30:02.690Z,2.53
2019-01-28T19:32:50.877Z,2.46
2019-01-28T19:35:19.981Z,2.47
2019-01-28T19:37:48.914Z,2.46
2019-01-28T19:40:17.847Z,2.50
2019-01-28T19:42:47.592Z,2.57
2019-01-28T19:45:19.712Z,2.46
2019-01-28T19:47:48.795Z,2.41
2019-01-28T19:50:20.203Z,2.45
2019-01-28T19:52:49.222Z,2.44
2019-01-28T19:55:18.333Z,2.49
2019-01-28T19:57:47.357Z,2.40
2019-01-28T20:00:27.227Z,2.28
2019-01-28T20:02:58.284Z,2.22
2019-01-28T20:05:27.500Z,2.24
2019-01-28T20:07:56.585Z,2.19
2019-01-28T20:10:25.537Z,2.21
2019-01-28T20:12:54.516Z,2.26
2019-01-28T20:15:23.752Z,2.34
2019-01-28T20:17:52.686Z,2.31
2019-01-28T20:20:21.696Z,2.29
2019-01-28T20:22:50.703Z,2.29
2019-01-28T20:25:20.072Z,2.23
2019-01-28T20:27:49.122Z,2.28
2019-01-28T20:30:20.884Z,2.26
2019-01-28T20:32:49.920Z,2.27
2019-01-28T20:35:19.144Z,2.27
2019-01-28T20:37:48.195Z,2.22
2019-01-28T20:40:17.468Z,2.18
2019-01-28T20:42:46.596Z,2.21
2019-01-28T20:45:17.514Z,2.22
2019-01-28T20:47:46.498Z,2.16
2019-01-28T20:50:18.152Z,2.21
2019-01-28T20:52:47.179Z,2.20
2019-01-28T20:55:16.294Z,2.18
2019-01-28T20:57:45.706Z,2.15
2019-01-28T21:00:19.862Z,2.10
2019-01-28T21:02:48.946Z,2.11
2019-01-28T21:05:18.940Z,2.15
2019-01-28T21:07:48.273Z,2.10
2019-01-28T21:10:19.452Z,2.09
2019-01-28T21:12:48.706Z,2.14
2019-01-28T21:15:18.166Z,2.06
2019-01-28T21:17:47.587Z,2.07
2019-01-28T21:20:18.029Z,2.10
2019-01-28T21:22:47.585Z,2.07
2019-01-28T21:25:21.659Z,2.09
2019-01-28T21:27:50.951Z,2.04
2019-01-28T21:30:25.325Z,2.04
2019-01-28T21:32:54.309Z,2.02
2019-01-28T21:35:46.857Z,2.01
2019-01-28T21:38:20.096Z,2.03
2019-01-28T21:40:49.155Z,2.00
2019-01-28T21:43:18.192Z,2.02
2019-01-28T21:45:47.306Z,2.06
2019-01-28T21:48:16.452Z,2.10
2019-01-28T21:50:45.404Z,2.02
2019-01-28T21:53:14.418Z,2.05
2019-01-28T21:55:43.590Z,2.03
2019-01-28T21:58:12.622Z,2.04
2019-01-28T22:00:41.853Z,2.01
2019-01-28T22:03:10.896Z,2.00
2019-01-28T22:05:40.032Z,1.94
2019-01-28T22:08:09.241Z,1.96
2019-01-28T22:10:40.001Z,1.92
2019-01-28T22:13:09.033Z,1.97
2019-01-28T22:15:38.266Z,1.91
2019-01-28T22:18:07.343Z,1.87
2019-01-28T22:20:36.382Z,1.85
2019-01-28T22:23:05.765Z,1.78
2019-01-28T22:25:35.146Z,1.79
2019-01-28T22:28:04.568Z,1.79
2019-01-28T22:30:33.971Z,1.76
2019-01-28T22:33:03.610Z,1.74
2019-01-28T22:35:32.633Z,1.72
2019-01-28T22:38:13.977Z,1.65
2019-01-28T22:40:42.964Z,1.64
2019-01-28T22:43:11.982Z,1.62
2019-01-28T22:45:40.981Z,1.67
2019-01-28T22:48:09.994Z,1.68
2019-01-28T22:50:39.082Z,1.71
2019-01-28T22:53:08.057Z,1.73
2019-01-28T22:55:37.052Z,1.68
2019-01-28T22:58:06.090Z,1.64
2019-01-28T23:00:51.484Z,1.66
2019-01-28T23:12:41.250Z,1.49
2019-01-28T23:15:10.704Z,1.53
2019-01-28T23:17:40.123Z,1.55
2019-01-28T23:20:09.617Z,1.48
2019-01-28T23:22:38.968Z,1.49
2019-01-28T23:25:08.191Z,1.46
2019-01-28T23:27:37.564Z,1.52
2019-01-28T23:30:07.786Z,1.48
2019-01-28T23:32:37.019Z,1.51
2019-01-28T23:35:07.301Z,1.49
2019-01-28T23:37:36.671Z,1.51
2019-01-28T23:40:06.603Z,1.54
2019-01-28T23:42:37.717Z,1.49
2019-01-28T23:45:27.537Z,1.51
2019-01-28T23:47:56.750Z,1.47
2019-01-28T23:50:25.987Z,1.49
2019-01-28T23:52:55.274Z,1.51
2019-01-28T23:55:24.520Z,1.47
2019-01-28T23:57:56.802Z,1.46
